createdAt,value
2023-05-09T00:01:08.020Z,59.50
2023-05-09T00:02:13.057Z,59.50
2023-05-09T00:04:44.455Z,59.50
2023-05-09T00:05:52.839Z,59.50
2023-05-09T00:07:00.350Z,59.50
2023-05-09T00:08:10.721Z,59.50
2023-05-09T00:10:32.496Z,59.50
2023-05-09T00:11:43.239Z,59.50
2023-05-09T00:12:47.159Z,59.50
2023-05-09T00:14:03.441Z,59.50
2023-05-09T00:15:08.616Z,59.50
2023-05-09T00:16:24.137Z,59.40
2023-05-09T00:17:28.731Z,59.40
2023-05-09T00:18:34.428Z,59.50
2023-05-09T00:19:43.703Z,59.40
2023-05-09T00:20:48.528Z,59.50
2023-05-09T00:21:55.561Z,59.40
2023-05-09T00:22:59.534Z,59.50
2023-05-09T00:24:06.457Z,59.50
2023-05-09T00:26:31.574Z,59.50
2023-05-09T00:29:02.600Z,59.40
2023-05-09T00:30:07.061Z,59.40
2023-05-09T00:31:22.073Z,59.40
2023-05-09T00:32:26.315Z,59.40
2023-05-09T00:33:29.154Z,59.40
2023-05-09T00:34:33.825Z,59.40
2023-05-09T00:35:48.972Z,59.40
2023-05-09T00:36:55.459Z,59.30
2023-05-09T00:37:58.688Z,59.40
2023-05-09T00:40:20.819Z,59.40
2023-05-09T00:41:27.302Z,59.40
2023-05-09T00:42:32.501Z,59.40
2023-05-09T00:43:39.514Z,59.40
2023-05-09T00:44:47.543Z,59.30
2023-05-09T00:46:12.377Z,59.40
2023-05-09T00:47:18.629Z,59.30
2023-05-09T00:48:24.249Z,59.30
2023-05-09T00:49:29.961Z,59.30
2023-05-09T00:50:36.057Z,59.30
2023-05-09T00:51:40.202Z,59.30
2023-05-09T00:52:57.710Z,59.30
2023-05-09T00:54:07.626Z,59.20
2023-05-09T00:55:22.589Z,59.30
2023-05-09T00:57:44.843Z,59.20
2023-05-09T00:58:53.009Z,59.30
2023-05-09T01:00:01.635Z,59.30
2023-05-09T01:01:25.517Z,59.30
2023-05-09T01:02:31.005Z,59.20
2023-05-09T01:03:41.606Z,59.30
2023-05-09T01:04:51.058Z,59.20
2023-05-09T01:07:22.558Z,59.20
2023-05-09T01:10:13.753Z,59.20
2023-05-09T01:11:32.265Z,59.20
2023-05-09T01:12:43.443Z,59.20
2023-05-09T01:13:50.773Z,59.20
2023-05-09T01:15:07.613Z,59.20
2023-05-09T01:16:17.113Z,59.20
2023-05-09T01:17:38.290Z,59.10
2023-05-09T01:19:01.213Z,59.20
2023-05-09T01:20:06.463Z,59.20
2023-05-09T01:21:32.673Z,59.10
2023-05-09T01:22:50.710Z,59.20
2023-05-09T01:23:55.402Z,59.20
2023-05-09T01:25:17.580Z,59.10
2023-05-09T01:26:26.145Z,59.20
2023-05-09T01:27:50.939Z,59.00
2023-05-09T01:29:28.759Z,59.10
2023-05-09T01:30:35.517Z,59.10
2023-05-09T01:31:44.233Z,59.10
2023-05-09T01:32:53.869Z,59.10
2023-05-09T01:33:58.504Z,59.00
2023-05-09T01:35:04.869Z,59.00
2023-05-09T01:36:16.129Z,59.00
2023-05-09T01:37:20.925Z,59.00
2023-05-09T01:38:25.631Z,59.10
2023-05-09T01:39:32.541Z,59.00
2023-05-09T01:40:37.003Z,59.10
2023-05-09T01:41:46.085Z,59.10
2023-05-09T01:42:57.034Z,59.10
2023-05-09T01:44:02.597Z,59.00
2023-05-09T01:45:07.884Z,59.00
2023-05-09T01:46:13.330Z,59.00
2023-05-09T01:47:22.466Z,59.00
2023-05-09T01:48:33.680Z,59.00
2023-05-09T01:49:44.709Z,59.00
2023-05-09T01:51:04.068Z,58.90
2023-05-09T01:52:12.737Z,59.00
2023-05-09T01:53:27.146Z,59.10
2023-05-09T01:54:33.857Z,59.00
2023-05-09T01:55:39.445Z,59.00
2023-05-09T01:56:45.479Z,59.00
2023-05-09T01:57:49.667Z,59.00
2023-05-09T01:59:06.302Z,59.00
2023-05-09T02:00:11.430Z,59.00
2023-05-09T02:01:18.187Z,58.90
2023-05-09T02:02:21.879Z,59.00
2023-05-09T02:03:25.773Z,58.90
2023-05-09T02:04:31.913Z,58.90
2023-05-09T02:05:39.009Z,58.90
2023-05-09T02:08:06.504Z,58.90
2023-05-09T02:09:12.980Z,58.90
2023-05-09T02:10:19.586Z,58.90
2023-05-09T02:11:23.524Z,59.00
2023-05-09T02:12:31.365Z,58.90
2023-05-09T02:13:58.001Z,58.90
2023-05-09T02:15:00.542Z,58.90
2023-05-09T02:16:25.366Z,58.90
2023-05-09T02:17:45.426Z,58.90
2023-05-09T02:19:17.294Z,58.90
2023-05-09T02:20:24.917Z,58.90
2023-05-09T02:21:29.288Z,58.90
2023-05-09T02:22:35.735Z,58.90
2023-05-09T02:25:00.652Z,58.90
2023-05-09T02:26:03.538Z,58.90
2023-05-09T02:27:08.803Z,58.90
2023-05-09T02:29:40.412Z,58.90
2023-05-09T02:30:46.700Z,58.90
2023-05-09T02:32:12.871Z,58.90
2023-05-09T02:33:38.962Z,58.90
2023-05-09T02:34:43.805Z,58.90
2023-05-09T02:36:02.184Z,58.90
2023-05-09T02:37:08.635Z,58.80
2023-05-09T02:38:14.998Z,58.90
2023-05-09T02:39:21.189Z,58.90
2023-05-09T02:40:28.691Z,58.80
2023-05-09T02:41:43.925Z,58.80
2023-05-09T02:43:09.739Z,58.80
2023-05-09T02:44:13.743Z,58.80
2023-05-09T02:45:18.886Z,58.80
2023-05-09T02:46:28.771Z,58.90
2023-05-09T02:47:32.875Z,58.80
2023-05-09T02:48:38.415Z,58.80
2023-05-09T02:51:01.727Z,58.70
2023-05-09T02:52:07.657Z,58.80
2023-05-09T02:53:19.104Z,58.80
2023-05-09T02:54:26.777Z,58.80
2023-05-09T02:55:31.340Z,58.70
2023-05-09T02:58:09.111Z,58.70
2023-05-09T02:59:17.620Z,58.70
2023-05-09T03:00:22.499Z,58.80
2023-05-09T03:01:28.866Z,58.80
2023-05-09T03:03:55.484Z,58.80
2023-05-09T03:05:03.442Z,58.70
2023-05-09T03:06:07.348Z,58.70
2023-05-09T03:07:10.876Z,58.70
2023-05-09T03:08:15.145Z,58.80
2023-05-09T03:09:18.513Z,58.70
2023-05-09T03:10:21.854Z,58.70
2023-05-09T03:11:27.859Z,58.70
2023-05-09T03:12:36.025Z,58.70
2023-05-09T03:13:42.915Z,58.70
2023-05-09T03:14:47.003Z,58.70
2023-05-09T03:15:50.690Z,58.70
2023-05-09T03:17:21.254Z,58.70
2023-05-09T03:18:24.852Z,58.70
2023-05-09T03:19:29.821Z,58.70
2023-05-09T03:20:35.134Z,58.70
2023-05-09T03:21:41.556Z,58.60
2023-05-09T03:22:45.703Z,58.70
2023-05-09T03:24:02.985Z,58.70
2023-05-09T03:25:14.062Z,58.60
2023-05-09T03:26:17.721Z,58.60
2023-05-09T03:27:21.639Z,58.60
2023-05-09T03:28:27.350Z,58.60
2023-05-09T03:29:37.382Z,58.60
2023-05-09T03:30:55.537Z,58.60
2023-05-09T03:32:05.537Z,58.60
2023-05-09T03:33:10.682Z,58.60
2023-05-09T03:34:16.966Z,58.60
2023-05-09T03:35:29.071Z,58.60
2023-05-09T03:36:41.056Z,58.60
2023-05-09T03:37:46.473Z,58.60
2023-05-09T03:38:49.639Z,58.60
2023-05-09T03:39:54.432Z,58.60
2023-05-09T03:40:58.922Z,58.60
2023-05-09T03:42:03.894Z,58.60
2023-05-09T03:43:07.585Z,58.50
2023-05-09T03:44:14.210Z,58.50
2023-05-09T03:45:21.515Z,58.60
2023-05-09T03:46:27.941Z,58.60
2023-05-09T03:49:05.555Z,58.50
2023-05-09T03:50:09.346Z,58.50
2023-05-09T03:51:15.844Z,58.50
2023-05-09T03:52:21.037Z,58.50
2023-05-09T03:53:24.286Z,58.50
2023-05-09T03:54:29.188Z,58.50
2023-05-09T03:55:32.795Z,58.50
2023-05-09T03:56:36.067Z,58.50
2023-05-09T03:57:40.540Z,58.50
2023-05-09T03:58:46.508Z,58.60
2023-05-09T03:59:57.075Z,58.50
2023-05-09T04:00:59.821Z,58.50
2023-05-09T04:02:04.904Z,58.40
2023-05-09T04:03:13.746Z,58.40
2023-05-09T04:04:44.015Z,58.50
2023-05-09T04:07:19.363Z,58.50
2023-05-09T04:08:28.182Z,58.50
2023-05-09T04:09:33.674Z,58.50
2023-05-09T04:12:20.122Z,58.40
2023-05-09T04:13:30.876Z,58.40
2023-05-09T04:14:40.545Z,58.40
2023-05-09T04:15:48.750Z,58.40
2023-05-09T04:16:55.232Z,58.40
2023-05-09T04:18:07.562Z,58.40
2023-05-09T04:19:10.686Z,58.40
2023-05-09T04:20:15.199Z,58.50
2023-05-09T04:21:22.845Z,58.50
2023-05-09T04:22:32.733Z,58.40
2023-05-09T04:23:39.839Z,58.40
2023-05-09T04:24:49.472Z,58.40
2023-05-09T04:25:59.375Z,58.40
2023-05-09T04:27:08.767Z,58.40
2023-05-09T04:28:15.338Z,58.40
2023-05-09T04:29:51.217Z,58.40
2023-05-09T04:31:29.850Z,58.30
2023-05-09T04:32:37.784Z,58.40
2023-05-09T04:33:48.356Z,58.40
2023-05-09T04:35:02.629Z,58.40
2023-05-09T04:36:15.820Z,58.40
2023-05-09T04:37:25.201Z,58.40
2023-05-09T04:38:42.617Z,58.40
2023-05-09T04:39:50.813Z,58.40
2023-05-09T04:41:05.802Z,58.40
2023-05-09T04:42:23.355Z,58.40
2023-05-09T04:43:32.982Z,58.30
2023-05-09T04:44:43.497Z,58.30
2023-05-09T04:45:50.923Z,58.40
2023-05-09T04:46:56.034Z,58.40
2023-05-09T04:48:05.629Z,58.40
2023-05-09T04:49:09.311Z,58.30
2023-05-09T04:50:16.349Z,58.30
2023-05-09T04:51:22.836Z,58.40
2023-05-09T04:52:35.181Z,58.30
2023-05-09T04:53:40.430Z,58.30
2023-05-09T04:54:47.877Z,58.20
2023-05-09T04:56:06.469Z,58.30
2023-05-09T04:57:17.883Z,58.30
2023-05-09T04:58:29.456Z,58.30
2023-05-09T04:59:36.134Z,58.30
2023-05-09T05:00:40.686Z,58.30
2023-05-09T05:01:49.392Z,58.30
2023-05-09T05:04:18.399Z,58.30
2023-05-09T05:05:25.373Z,58.30
2023-05-09T05:06:32.054Z,58.30
2023-05-09T05:09:13.094Z,58.30
2023-05-09T05:10:36.374Z,58.20
2023-05-09T05:11:59.547Z,58.30
2023-05-09T05:13:09.461Z,58.30
2023-05-09T05:14:58.689Z,58.30
2023-05-09T05:16:11.162Z,58.30
2023-05-09T05:20:08.003Z,58.20
2023-05-09T05:21:52.831Z,58.30
2023-05-09T05:22:58.683Z,58.20
2023-05-09T05:24:04.903Z,58.20
2023-05-09T05:25:35.477Z,58.20
2023-05-09T05:26:43.417Z,58.10
2023-05-09T05:27:52.862Z,58.20
2023-05-09T05:29:02.825Z,58.20
2023-05-09T05:30:19.194Z,58.20
2023-05-09T05:31:24.967Z,58.20
2023-05-09T05:32:29.634Z,58.20
2023-05-09T05:33:42.638Z,58.20
2023-05-09T05:34:45.728Z,58.10
2023-05-09T05:35:58.265Z,58.10
2023-05-09T05:37:02.676Z,58.20
2023-05-09T05:38:13.264Z,58.20
2023-05-09T05:39:18.730Z,58.20
2023-05-09T05:40:23.575Z,58.10
2023-05-09T05:42:50.702Z,58.10
2023-05-09T05:45:21.496Z,58.20
2023-05-09T05:46:29.297Z,58.10
2023-05-09T05:47:36.960Z,58.20
2023-05-09T05:48:46.010Z,58.10
2023-05-09T05:50:04.278Z,58.20
2023-05-09T05:51:32.831Z,58.10
2023-05-09T05:52:38.220Z,58.10
2023-05-09T05:54:02.287Z,58.10
2023-05-09T05:55:37.551Z,58.10
2023-05-09T05:56:44.543Z,58.10
2023-05-09T05:57:52.672Z,58.10
2023-05-09T05:58:58.420Z,58.30
2023-05-09T06:00:09.908Z,58.10
2023-05-09T06:01:16.833Z,58.10
2023-05-09T06:02:25.397Z,58.10
2023-05-09T06:03:40.536Z,58.10
2023-05-09T06:04:52.263Z,58.10
2023-05-09T06:06:00.621Z,58.10
2023-05-09T06:07:09.372Z,58.10
2023-05-09T06:08:16.439Z,58.10
2023-05-09T06:09:21.661Z,58.00
2023-05-09T06:10:28.870Z,58.10
2023-05-09T06:11:46.021Z,58.00
2023-05-09T06:12:51.262Z,58.10
2023-05-09T06:13:55.529Z,58.00
2023-05-09T06:15:01.664Z,58.10
2023-05-09T06:16:18.526Z,58.00
2023-05-09T06:18:49.770Z,58.10
2023-05-09T06:19:57.636Z,58.10
2023-05-09T06:21:19.882Z,58.10
2023-05-09T06:22:24.995Z,58.00
2023-05-09T06:23:30.412Z,58.00
2023-05-09T06:24:40.139Z,58.10
2023-05-09T06:25:54.743Z,58.00
2023-05-09T06:26:59.981Z,58.00
2023-05-09T06:28:04.966Z,58.10
2023-05-09T06:29:11.332Z,58.00
2023-05-09T06:30:28.032Z,58.10
2023-05-09T06:31:41.205Z,58.10
2023-05-09T06:32:59.042Z,58.00
2023-05-09T06:34:07.778Z,58.10
2023-05-09T06:35:13.127Z,58.00
2023-05-09T06:38:04.701Z,58.10
2023-05-09T06:39:09.716Z,58.10
2023-05-09T06:41:52.679Z,58.10
2023-05-09T06:43:11.729Z,58.00
2023-05-09T06:44:19.859Z,58.10
2023-05-09T06:45:34.643Z,58.00
2023-05-09T06:46:44.439Z,58.10
2023-05-09T06:47:50.243Z,58.10
2023-05-09T06:48:57.008Z,58.00
2023-05-09T06:50:16.409Z,58.10
2023-05-09T06:53:59.926Z,58.00
2023-05-09T06:55:05.675Z,58.10
2023-05-09T06:56:14.317Z,58.10
2023-05-09T06:58:40.697Z,58.00
2023-05-09T06:59:45.889Z,58.10
2023-05-09T07:00:52.315Z,58.10
2023-05-09T07:02:04.240Z,58.10
2023-05-09T07:03:14.867Z,58.10
2023-05-09T07:04:22.705Z,58.10
2023-05-09T07:06:51.763Z,58.10
2023-05-09T07:08:01.663Z,58.10
2023-05-09T07:09:07.670Z,58.10
2023-05-09T07:10:25.370Z,58.10
2023-05-09T07:11:39.244Z,58.00
2023-05-09T07:14:28.002Z,58.10
2023-05-09T07:15:41.080Z,58.00
2023-05-09T07:18:16.764Z,58.10
2023-05-09T07:19:20.045Z,58.10
2023-05-09T07:20:22.519Z,58.10
2023-05-09T07:21:24.786Z,58.10
2023-05-09T07:22:31.491Z,58.10
2023-05-09T07:23:41.281Z,58.10
2023-05-09T07:24:49.342Z,58.10
2023-05-09T07:25:55.842Z,58.10
2023-05-09T07:26:58.046Z,58.10
2023-05-09T07:28:01.083Z,58.10
2023-05-09T07:29:21.656Z,58.10
2023-05-09T07:30:24.171Z,58.10
2023-05-09T07:31:26.850Z,58.10
2023-05-09T07:32:29.212Z,58.10
2023-05-09T07:33:32.264Z,58.10
2023-05-09T07:34:39.653Z,58.10
2023-05-09T07:35:45.261Z,58.10
2023-05-09T07:36:48.889Z,58.10
2023-05-09T07:37:52.395Z,58.10
2023-05-09T07:38:54.809Z,58.10
2023-05-09T07:39:57.086Z,58.10
2023-05-09T07:40:59.323Z,58.20
2023-05-09T07:42:05.249Z,58.80
2023-05-09T07:43:07.544Z,59.20
2023-05-09T07:44:11.055Z,59.50
2023-05-09T07:45:14.803Z,59.60
2023-05-09T07:46:17.510Z,59.70
2023-05-09T07:47:19.852Z,59.60
2023-05-09T07:48:23.507Z,59.60
2023-05-09T07:49:26.985Z,59.80
2023-05-09T07:50:29.240Z,59.50
2023-05-09T07:51:32.275Z,59.50
2023-05-09T07:52:34.460Z,59.50
2023-05-09T07:53:38.003Z,59.40
2023-05-09T07:54:40.253Z,59.10
2023-05-09T07:55:42.787Z,59.00
2023-05-09T07:56:45.443Z,58.90
2023-05-09T07:57:48.787Z,58.50
2023-05-09T07:58:51.234Z,58.00
2023-05-09T07:59:55.198Z,57.90
2023-05-09T08:00:57.613Z,58.10
2023-05-09T08:01:59.917Z,57.80
2023-05-09T08:03:02.483Z,58.00
2023-05-09T08:04:09.116Z,57.70
2023-05-09T08:05:21.804Z,57.30
2023-05-09T08:06:24.784Z,57.10
2023-05-09T08:07:27.061Z,57.20
2023-05-09T08:08:29.314Z,57.00
2023-05-09T08:09:31.558Z,57.10
2023-05-09T08:10:35.036Z,56.80
2023-05-09T08:11:37.286Z,56.20
2023-05-09T08:12:39.645Z,55.80
2023-05-09T08:13:41.972Z,55.70
2023-05-09T08:14:44.166Z,55.90
2023-05-09T08:15:46.352Z,56.00
2023-05-09T08:16:48.623Z,55.70
2023-05-09T08:17:52.197Z,55.50
2023-05-09T08:18:54.960Z,55.40
2023-05-09T08:19:57.212Z,55.40
2023-05-09T08:20:59.734Z,55.90
2023-05-09T08:22:02.173Z,55.40
2023-05-09T08:23:04.455Z,55.30
2023-05-09T08:24:08.178Z,55.00
2023-05-09T08:25:10.574Z,54.90
2023-05-09T08:26:12.819Z,54.90
2023-05-09T08:27:15.592Z,54.80
2023-05-09T08:28:18.289Z,54.80
2023-05-09T08:29:21.258Z,54.90
2023-05-09T08:30:23.472Z,54.90
2023-05-09T08:31:27.086Z,54.60
2023-05-09T08:32:29.914Z,54.50
2023-05-09T08:33:32.118Z,54.50
2023-05-09T08:34:34.791Z,54.40
2023-05-09T08:35:39.006Z,54.30
2023-05-09T08:36:41.421Z,53.80
2023-05-09T08:37:43.982Z,53.80
2023-05-09T08:38:46.398Z,53.90
2023-05-09T08:39:48.619Z,53.80
2023-05-09T08:40:50.869Z,53.80
2023-05-09T08:41:56.350Z,53.70
2023-05-09T08:42:58.637Z,53.60
2023-05-09T08:44:00.963Z,53.50
2023-05-09T08:45:07.958Z,53.40
2023-05-09T08:46:10.873Z,53.40
2023-05-09T08:47:13.670Z,53.40
2023-05-09T08:48:17.024Z,53.30
2023-05-09T08:49:20.955Z,53.20
2023-05-09T08:50:23.568Z,53.30
2023-05-09T08:51:26.209Z,53.20
2023-05-09T08:52:30.039Z,53.10
2023-05-09T08:53:33.480Z,53.10
2023-05-09T08:54:36.229Z,53.50
2023-05-09T08:55:38.863Z,53.30
2023-05-09T08:56:41.509Z,53.30
2023-05-09T08:57:43.845Z,53.20
2023-05-09T08:58:46.213Z,52.90
2023-05-09T08:59:49.233Z,52.70
2023-05-09T09:00:51.782Z,52.60
2023-05-09T09:01:54.653Z,52.50
2023-05-09T09:03:01.330Z,52.50
2023-05-09T09:04:07.626Z,52.40
2023-05-09T09:05:23.945Z,52.50
2023-05-09T09:06:35.555Z,52.40
2023-05-09T09:07:38.635Z,52.40
2023-05-09T09:08:41.697Z,52.40
2023-05-09T09:09:44.987Z,52.50
2023-05-09T09:10:48.492Z,52.10
2023-05-09T09:11:50.994Z,52.00
2023-05-09T09:12:53.401Z,52.00
2023-05-09T09:13:55.906Z,52.50
2023-05-09T09:15:01.905Z,52.10
2023-05-09T09:16:04.915Z,51.90
2023-05-09T09:17:08.163Z,51.80
2023-05-09T09:18:12.476Z,51.40
2023-05-09T09:19:17.389Z,51.30
2023-05-09T09:20:22.656Z,51.20
2023-05-09T09:21:25.066Z,50.80
2023-05-09T09:22:33.721Z,50.60
2023-05-09T09:23:37.176Z,50.80
2023-05-09T09:24:39.381Z,51.00
2023-05-09T09:25:41.580Z,51.10
2023-05-09T09:26:48.462Z,50.90
2023-05-09T09:27:50.842Z,50.90
2023-05-09T09:28:54.299Z,50.90
2023-05-09T09:30:06.245Z,50.90
2023-05-09T09:31:20.824Z,50.80
2023-05-09T09:32:32.303Z,50.80
2023-05-09T09:33:35.707Z,50.80
2023-05-09T09:34:38.219Z,50.70
2023-05-09T09:35:41.041Z,50.80
2023-05-09T09:36:43.354Z,50.90
2023-05-09T09:37:45.812Z,50.90
2023-05-09T09:38:48.040Z,50.80
2023-05-09T09:39:56.579Z,50.90
2023-05-09T09:41:00.434Z,50.90
2023-05-09T09:42:09.997Z,50.90
2023-05-09T09:43:12.191Z,50.90
2023-05-09T09:44:15.547Z,50.50
2023-05-09T09:45:19.124Z,50.10
2023-05-09T09:46:21.309Z,50.00
2023-05-09T09:47:32.898Z,49.80
2023-05-09T09:48:35.511Z,49.60
2023-05-09T09:49:38.073Z,49.50
2023-05-09T09:50:40.597Z,49.40
2023-05-09T09:51:43.116Z,49.40
2023-05-09T09:52:56.029Z,49.50
2023-05-09T09:54:01.851Z,49.40
2023-05-09T09:55:04.692Z,49.40
2023-05-09T09:56:07.142Z,49.30
2023-05-09T09:57:09.365Z,49.40
2023-05-09T09:58:18.306Z,49.30
2023-05-09T09:59:21.382Z,49.10
2023-05-09T10:00:27.545Z,49.20
2023-05-09T10:01:29.846Z,49.30
2023-05-09T10:02:32.287Z,49.30
2023-05-09T10:03:37.957Z,49.10
2023-05-09T10:04:44.017Z,49.20
2023-05-09T10:05:46.209Z,49.10
2023-05-09T10:06:55.287Z,49.00
2023-05-09T10:08:01.542Z,49.00
2023-05-09T10:09:03.840Z,48.90
2023-05-09T10:10:06.567Z,48.90
2023-05-09T10:11:09.405Z,48.70
2023-05-09T10:12:12.130Z,48.70
2023-05-09T10:13:14.419Z,48.70
2023-05-09T10:14:18.417Z,48.60
2023-05-09T10:15:21.836Z,48.50
2023-05-09T10:16:31.970Z,48.50
2023-05-09T10:17:43.244Z,48.40
2023-05-09T10:18:45.623Z,48.40
2023-05-09T10:19:48.540Z,48.30
2023-05-09T10:20:51.866Z,48.30
2023-05-09T10:22:14.352Z,48.20
2023-05-09T10:23:17.313Z,48.20
2023-05-09T10:24:22.799Z,48.20
2023-05-09T10:25:27.791Z,48.20
2023-05-09T10:26:32.605Z,48.20
2023-05-09T10:27:36.143Z,48.10
2023-05-09T10:28:40.702Z,48.00
2023-05-09T10:30:03.091Z,48.10
2023-05-09T10:31:14.978Z,48.00
2023-05-09T10:32:24.240Z,48.00
2023-05-09T10:33:30.921Z,48.00
2023-05-09T10:34:34.133Z,48.00
2023-05-09T10:35:37.457Z,47.90
2023-05-09T10:36:39.874Z,47.90
2023-05-09T10:37:42.626Z,47.90
2023-05-09T10:38:45.089Z,47.90
2023-05-09T10:39:47.360Z,48.00
2023-05-09T10:40:49.793Z,47.90
2023-05-09T10:41:52.177Z,48.00
2023-05-09T10:42:54.426Z,47.80
2023-05-09T10:43:58.162Z,47.80
2023-05-09T10:45:00.944Z,47.90
2023-05-09T10:46:03.869Z,47.70
2023-05-09T10:47:07.287Z,47.70
2023-05-09T10:48:09.631Z,47.70
2023-05-09T10:49:13.618Z,47.80
2023-05-09T10:50:16.853Z,47.90
2023-05-09T10:51:19.190Z,47.80
2023-05-09T10:52:22.417Z,47.90
2023-05-09T10:53:40.196Z,47.90
2023-05-09T10:54:42.800Z,48.20
2023-05-09T10:55:53.446Z,48.20
2023-05-09T10:56:56.232Z,48.30
2023-05-09T10:58:09.766Z,47.90
2023-05-09T10:59:32.295Z,47.70
2023-05-09T11:00:40.877Z,47.60
2023-05-09T11:01:43.182Z,47.60
2023-05-09T11:03:05.596Z,47.50
2023-05-09T11:04:11.191Z,47.40
2023-05-09T11:05:14.728Z,47.20
2023-05-09T11:06:35.654Z,47.30
2023-05-09T11:07:37.828Z,47.40
2023-05-09T11:08:42.153Z,47.40
2023-05-09T11:09:44.393Z,47.10
2023-05-09T11:10:46.713Z,47.00
2023-05-09T11:11:52.894Z,46.90
2023-05-09T11:12:58.069Z,47.00
2023-05-09T11:14:00.602Z,46.80
2023-05-09T11:15:07.812Z,46.80
2023-05-09T11:16:11.088Z,46.90
2023-05-09T11:17:14.697Z,47.00
2023-05-09T11:18:17.193Z,46.90
2023-05-09T11:19:44.077Z,46.90
2023-05-09T11:20:48.367Z,47.00
2023-05-09T11:22:00.829Z,47.10
2023-05-09T11:23:06.827Z,47.10
2023-05-09T11:24:16.449Z,47.10
2023-05-09T11:25:25.095Z,47.70
2023-05-09T11:26:30.124Z,47.20
2023-05-09T11:27:50.747Z,47.70
2023-05-09T11:28:54.120Z,46.90
2023-05-09T11:29:57.908Z,47.20
2023-05-09T11:31:15.903Z,47.20
2023-05-09T11:32:18.293Z,47.20
2023-05-09T11:33:24.437Z,47.20
2023-05-09T11:34:26.766Z,47.00
2023-05-09T11:35:29.322Z,46.90
2023-05-09T11:36:34.898Z,47.00
2023-05-09T11:37:44.852Z,47.00
2023-05-09T11:38:47.663Z,46.90
2023-05-09T11:39:56.312Z,47.00
2023-05-09T11:40:58.910Z,46.90
2023-05-09T11:42:02.067Z,47.10
2023-05-09T11:43:04.274Z,47.30
2023-05-09T11:44:21.620Z,47.40
2023-05-09T11:45:24.788Z,47.30
2023-05-09T11:46:27.341Z,47.30
2023-05-09T11:47:30.789Z,47.30
2023-05-09T11:48:39.638Z,47.30
2023-05-09T11:49:45.293Z,47.20
2023-05-09T11:50:48.371Z,47.50
2023-05-09T11:51:50.565Z,47.30
2023-05-09T11:52:53.265Z,47.20
2023-05-09T11:53:55.639Z,47.10
2023-05-09T11:54:58.565Z,47.00
2023-05-09T11:56:04.635Z,46.80
2023-05-09T11:57:07.360Z,46.60
2023-05-09T11:58:09.658Z,46.50
2023-05-09T11:59:14.616Z,46.40
2023-05-09T12:00:20.984Z,46.40
2023-05-09T12:01:23.313Z,46.40
2023-05-09T12:02:25.756Z,46.40
2023-05-09T12:03:28.350Z,46.40
2023-05-09T12:04:31.995Z,46.50
2023-05-09T12:05:34.299Z,46.50
2023-05-09T12:06:37.745Z,46.20
2023-05-09T12:07:41.262Z,46.00
2023-05-09T12:08:44.086Z,45.70
2023-05-09T12:09:49.076Z,45.60
2023-05-09T12:10:51.557Z,45.60
2023-05-09T12:11:53.764Z,45.70
2023-05-09T12:12:57.055Z,45.60
2023-05-09T12:13:59.412Z,45.50
2023-05-09T12:15:07.399Z,45.60
2023-05-09T12:16:09.681Z,45.60
2023-05-09T12:17:12.353Z,45.80
2023-05-09T12:18:14.759Z,45.90
2023-05-09T12:19:18.834Z,46.00
2023-05-09T12:20:21.042Z,45.90
2023-05-09T12:21:23.489Z,46.10
2023-05-09T12:22:25.830Z,46.40
2023-05-09T12:23:28.026Z,46.30
2023-05-09T12:24:30.516Z,46.40
2023-05-09T12:25:32.857Z,46.50
2023-05-09T12:26:35.392Z,46.50
2023-05-09T12:27:38.397Z,46.50
2023-05-09T12:28:41.285Z,46.30
2023-05-09T12:29:46.036Z,46.30
2023-05-09T12:30:48.500Z,46.20
2023-05-09T12:31:51.956Z,46.10
2023-05-09T12:32:54.381Z,46.00
2023-05-09T12:33:56.699Z,45.80
2023-05-09T12:35:00.327Z,45.80
2023-05-09T12:36:04.129Z,45.80
2023-05-09T12:37:13.937Z,45.50
2023-05-09T12:38:24.410Z,45.40
2023-05-09T12:39:26.806Z,45.60
2023-05-09T12:40:29.006Z,45.70
2023-05-09T12:41:39.109Z,45.40
2023-05-09T12:42:44.227Z,45.40
2023-05-09T12:43:48.371Z,45.20
2023-05-09T12:44:50.802Z,45.20
2023-05-09T12:45:53.199Z,45.10
2023-05-09T12:46:58.547Z,45.30
2023-05-09T12:48:02.499Z,45.10
2023-05-09T12:49:05.403Z,44.70
2023-05-09T12:50:08.271Z,44.40
2023-05-09T12:51:10.676Z,44.40
2023-05-09T12:52:16.941Z,44.10
2023-05-09T12:53:31.601Z,43.90
2023-05-09T12:54:34.235Z,44.00
2023-05-09T12:55:40.727Z,44.00
2023-05-09T12:56:42.991Z,44.20
2023-05-09T12:57:56.630Z,44.40
2023-05-09T12:58:58.782Z,44.50
2023-05-09T13:00:01.766Z,44.80
2023-05-09T13:01:05.681Z,44.80
2023-05-09T13:02:08.353Z,44.70
2023-05-09T13:03:20.413Z,44.70
2023-05-09T13:04:23.090Z,44.70
2023-05-09T13:05:25.449Z,44.70
2023-05-09T13:06:27.821Z,44.70
2023-05-09T13:07:38.180Z,44.80
2023-05-09T13:08:40.637Z,44.90
2023-05-09T13:09:56.994Z,44.80
2023-05-09T13:11:14.436Z,44.80
2023-05-09T13:12:20.563Z,44.80
2023-05-09T13:13:26.590Z,44.90
2023-05-09T13:14:29.664Z,44.90
2023-05-09T13:15:33.797Z,45.10
2023-05-09T13:16:36.151Z,45.00
2023-05-09T13:17:38.794Z,44.90
2023-05-09T13:18:40.977Z,45.00
2023-05-09T13:19:43.201Z,45.10
2023-05-09T13:20:46.397Z,45.10
2023-05-09T13:21:48.558Z,45.00
2023-05-09T13:22:51.068Z,45.00
2023-05-09T13:23:53.338Z,45.00
2023-05-09T13:24:56.502Z,45.10
2023-05-09T13:25:58.766Z,45.20
2023-05-09T13:27:00.979Z,45.20
2023-05-09T13:28:04.724Z,45.30
2023-05-09T13:29:08.028Z,45.40
2023-05-09T13:30:10.523Z,45.60
2023-05-09T13:31:12.774Z,45.90
2023-05-09T13:32:15.054Z,45.80
2023-05-09T13:33:25.676Z,45.80
2023-05-09T13:34:28.727Z,45.80
2023-05-09T13:35:30.931Z,46.00
2023-05-09T13:36:33.197Z,46.00
2023-05-09T13:37:35.685Z,46.20
2023-05-09T13:38:40.596Z,46.30
2023-05-09T13:39:42.991Z,46.30
2023-05-09T13:40:45.230Z,46.40
2023-05-09T13:41:51.171Z,46.50
2023-05-09T13:42:53.358Z,46.60
2023-05-09T13:43:56.646Z,46.80
2023-05-09T13:44:58.877Z,47.00
2023-05-09T13:46:01.225Z,47.00
2023-05-09T13:47:03.577Z,47.10
2023-05-09T13:48:05.991Z,47.20
2023-05-09T13:49:08.413Z,47.30
2023-05-09T13:50:11.067Z,47.30
2023-05-09T13:51:15.014Z,47.40
2023-05-09T13:52:17.344Z,47.50
2023-05-09T13:53:19.674Z,47.50
2023-05-09T13:54:23.088Z,47.60
2023-05-09T13:55:26.980Z,47.60
2023-05-09T13:56:29.529Z,47.70
2023-05-09T13:57:32.122Z,47.80
2023-05-09T13:58:34.455Z,47.90
2023-05-09T13:59:36.951Z,47.90
2023-05-09T14:00:39.181Z,47.90
2023-05-09T14:01:41.473Z,48.00
2023-05-09T14:02:44.149Z,48.00
2023-05-09T14:03:49.073Z,48.00
2023-05-09T14:04:51.498Z,48.10
2023-05-09T14:05:53.767Z,48.20
2023-05-09T14:06:55.971Z,48.20
2023-05-09T14:07:58.236Z,48.20
2023-05-09T14:09:00.532Z,48.20
2023-05-09T14:11:10.281Z,48.30
2023-05-09T14:12:15.324Z,48.30
2023-05-09T14:13:18.205Z,48.40
2023-05-09T14:14:21.842Z,48.40
2023-05-09T14:15:24.143Z,48.40
2023-05-09T14:16:26.827Z,48.40
2023-05-09T14:17:29.265Z,48.40
2023-05-09T14:18:31.576Z,48.50
2023-05-09T14:19:34.289Z,48.60
2023-05-09T14:20:37.754Z,48.60
2023-05-09T14:21:40.054Z,48.50
2023-05-09T14:22:42.777Z,48.60
2023-05-09T14:23:45.050Z,48.60
2023-05-09T14:24:47.399Z,48.70
2023-05-09T14:25:49.698Z,48.70
2023-05-09T14:26:52.024Z,48.70
2023-05-09T14:27:54.224Z,48.70
2023-05-09T14:28:56.476Z,48.70
2023-05-09T14:29:58.752Z,48.70
2023-05-09T14:31:01.493Z,48.80
2023-05-09T14:32:03.840Z,48.80
2023-05-09T14:33:07.039Z,48.80
2023-05-09T14:34:09.653Z,48.80
2023-05-09T14:35:11.909Z,48.90
2023-05-09T14:36:14.266Z,48.90
2023-05-09T14:37:17.192Z,48.90
2023-05-09T14:38:19.834Z,49.00
2023-05-09T14:39:22.100Z,49.00
2023-05-09T14:40:24.394Z,49.00
2023-05-09T14:41:26.901Z,48.90
2023-05-09T14:42:29.539Z,48.90
2023-05-09T14:43:32.923Z,49.00
2023-05-09T14:44:35.408Z,49.00
2023-05-09T14:45:38.844Z,49.10
2023-05-09T14:46:41.156Z,49.10
2023-05-09T14:47:43.889Z,49.10
2023-05-09T14:48:46.100Z,49.10
2023-05-09T14:49:48.368Z,49.10
2023-05-09T14:50:53.595Z,49.20
2023-05-09T14:51:56.520Z,49.20
2023-05-09T14:53:01.341Z,49.20
2023-05-09T14:54:04.705Z,49.30
2023-05-09T14:55:07.567Z,49.30
2023-05-09T14:56:11.499Z,49.30
2023-05-09T14:57:17.329Z,49.20
2023-05-09T14:58:21.245Z,49.30
2023-05-09T14:59:26.123Z,49.30
2023-05-09T15:00:29.096Z,49.30
2023-05-09T15:01:31.671Z,49.30
2023-05-09T15:02:35.168Z,49.20
2023-05-09T15:03:39.390Z,49.30
2023-05-09T15:04:43.833Z,49.30
2023-05-09T15:05:46.046Z,49.20